createdAt,value
2017-12-14T00:01:45.874Z,1.53
2017-12-14T00:04:12.142Z,1.50
2017-12-14T00:06:38.426Z,1.87
2017-12-14T00:09:04.745Z,0.80
2017-12-14T00:11:31.750Z,0.80
2017-12-14T00:13:58.050Z,0.80
2017-12-14T00:16:24.322Z,0.90
2017-12-14T00:18:50.556Z,0.93
2017-12-14T00:21:16.837Z,1.80
2017-12-14T00:23:43.176Z,0.97
2017-12-14T00:26:09.476Z,0.80
2017-12-14T00:28:36.496Z,0.70
2017-12-14T00:31:02.792Z,0.70
2017-12-14T00:33:29.064Z,0.70
2017-12-14T00:35:55.316Z,1.17
2017-12-14T00:38:21.604Z,0.70
2017-12-14T00:40:47.870Z,1.20
2017-12-14T00:43:14.912Z,0.80
2017-12-14T00:45:42.027Z,1.10
2017-12-14T00:48:08.296Z,1.17
2017-12-14T00:50:35.345Z,0.80
2017-12-14T00:53:02.439Z,1.07
2017-12-14T00:55:28.769Z,1.07
2017-12-14T00:57:55.049Z,1.90
2017-12-14T01:00:22.077Z,1.13
2017-12-14T01:02:48.340Z,2.07
2017-12-14T01:05:15.327Z,2.63
2017-12-14T01:07:41.647Z,1.27
2017-12-14T01:10:07.946Z,1.30
2017-12-14T01:12:35.008Z,1.03
2017-12-14T01:15:01.327Z,1.93
2017-12-14T01:17:28.317Z,1.83
2017-12-14T01:19:54.637Z,3.53
2017-12-14T01:22:20.937Z,1.93
2017-12-14T01:24:47.259Z,1.83
2017-12-14T01:27:14.306Z,1.83
2017-12-14T01:29:41.320Z,2.63
2017-12-14T01:32:07.574Z,1.10
2017-12-14T01:34:33.837Z,1.47
2017-12-14T01:37:00.106Z,2.40
2017-12-14T01:39:26.372Z,5.27
2017-12-14T01:41:53.352Z,2.47
2017-12-14T01:44:19.611Z,2.20
2017-12-14T01:46:45.916Z,2.20
2017-12-14T01:49:12.180Z,1.10
2017-12-14T01:51:38.489Z,0.93
2017-12-14T01:54:04.746Z,1.00
2017-12-14T01:56:31.028Z,1.87
2017-12-14T01:58:57.306Z,1.40
2017-12-14T02:01:23.843Z,1.10
2017-12-14T02:03:50.086Z,1.17
2017-12-14T02:06:17.172Z,1.40
2017-12-14T02:08:43.405Z,1.10
2017-12-14T02:11:09.653Z,0.90
2017-12-14T02:13:35.907Z,0.60
2017-12-14T02:16:02.151Z,0.70
2017-12-14T02:18:29.119Z,1.53
2017-12-14T02:20:55.363Z,0.70
2017-12-14T02:23:21.591Z,0.60
2017-12-14T02:25:47.825Z,0.40
2017-12-14T02:28:14.130Z,0.50
2017-12-14T02:30:41.184Z,0.73
2017-12-14T02:33:07.408Z,0.40
2017-12-14T02:35:35.371Z,0.60
2017-12-14T02:38:02.417Z,0.70
2017-12-14T02:40:29.404Z,0.40
2017-12-14T02:42:56.098Z,0.40
2017-12-14T02:45:23.108Z,3.00
2017-12-14T02:47:49.366Z,0.50
2017-12-14T02:50:15.632Z,0.43
2017-12-14T02:52:41.929Z,0.70
2017-12-14T02:55:08.200Z,0.50
2017-12-14T02:57:34.443Z,0.50
2017-12-14T03:00:00.733Z,0.40
2017-12-14T03:02:27.745Z,0.60
2017-12-14T03:04:54.009Z,0.50
2017-12-14T03:07:21.071Z,0.40
2017-12-14T03:09:47.369Z,0.50
2017-12-14T03:12:13.621Z,0.50
2017-12-14T03:14:40.699Z,0.40
2017-12-14T03:17:07.013Z,0.40
2017-12-14T03:19:33.309Z,0.50
2017-12-14T03:21:59.576Z,0.40
2017-12-14T03:24:25.914Z,0.40
2017-12-14T03:26:52.250Z,0.40
2017-12-14T03:29:18.571Z,0.40
2017-12-14T03:31:44.864Z,0.40
2017-12-14T03:34:11.241Z,0.40
2017-12-14T03:36:37.542Z,0.33
2017-12-14T03:39:04.645Z,0.30
2017-12-14T03:41:31.508Z,0.40
2017-12-14T03:43:57.760Z,0.30
2017-12-14T03:46:24.794Z,0.40
2017-12-14T03:48:51.052Z,0.30
2017-12-14T03:51:18.094Z,0.30
2017-12-14T03:53:45.129Z,0.40
2017-12-14T03:56:12.157Z,0.40
2017-12-14T03:58:38.393Z,0.53
2017-12-14T04:01:11.514Z,0.40
2017-12-14T04:03:38.579Z,0.40
2017-12-14T04:06:04.857Z,0.40
2017-12-14T04:08:31.114Z,0.30
2017-12-14T04:10:57.419Z,0.50
2017-12-14T04:13:23.768Z,0.40
2017-12-14T04:15:50.832Z,1.07
2017-12-14T04:18:17.079Z,0.40
2017-12-14T04:20:43.400Z,0.40
2017-12-14T04:23:09.805Z,0.50
2017-12-14T04:25:36.811Z,0.50
2017-12-14T04:28:03.073Z,0.50
2017-12-14T04:30:29.327Z,0.50
2017-12-14T04:32:56.315Z,3.63
2017-12-14T04:35:22.542Z,0.40
2017-12-14T04:37:48.916Z,0.40
2017-12-14T04:40:15.176Z,0.60
2017-12-14T04:42:41.473Z,0.90
2017-12-14T04:45:07.743Z,0.60
2017-12-14T04:47:34.035Z,0.43
2017-12-14T04:50:01.093Z,0.40
2017-12-14T04:52:28.151Z,0.60
2017-12-14T04:54:55.176Z,0.40
2017-12-14T04:57:21.490Z,0.50
2017-12-14T04:59:47.758Z,0.50
2017-12-14T05:02:14.785Z,0.40
2017-12-14T05:04:41.181Z,0.53
2017-12-14T05:07:07.446Z,0.70
2017-12-14T05:09:33.760Z,0.40
2017-12-14T05:12:00.091Z,0.40
2017-12-14T05:14:26.496Z,0.50
2017-12-14T05:16:52.786Z,0.40
2017-12-14T05:19:19.828Z,0.70
2017-12-14T05:21:46.157Z,0.40
2017-12-14T05:24:12.459Z,0.47
2017-12-14T05:26:38.787Z,0.40
2017-12-14T05:29:05.090Z,0.40
2017-12-14T05:31:31.401Z,0.50
2017-12-14T05:34:04.743Z,0.60
2017-12-14T05:36:31.044Z,0.90
2017-12-14T05:38:57.325Z,2.60
2017-12-14T05:41:23.645Z,1.90
2017-12-14T05:43:49.917Z,0.90
2017-12-14T05:46:16.172Z,1.20
2017-12-14T05:48:42.479Z,1.00
2017-12-14T05:51:08.891Z,0.60
2017-12-14T05:53:35.895Z,1.10
2017-12-14T05:56:02.235Z,0.60
2017-12-14T05:58:28.515Z,1.13
2017-12-14T06:00:55.679Z,0.73
2017-12-14T06:03:22.027Z,0.50
2017-12-14T06:05:48.340Z,0.40
2017-12-14T06:08:14.649Z,1.37
2017-12-14T06:10:41.692Z,0.70
2017-12-14T06:13:08.778Z,0.93
2017-12-14T06:15:35.066Z,0.80
2017-12-14T06:18:01.368Z,2.10
2017-12-14T06:20:27.658Z,0.50
2017-12-14T06:22:54.059Z,1.57
2017-12-14T06:25:20.294Z,0.50
2017-12-14T06:27:46.651Z,1.27
2017-12-14T06:30:12.983Z,0.87
2017-12-14T06:32:39.292Z,0.60
2017-12-14T06:35:06.373Z,1.40
2017-12-14T06:37:32.694Z,0.87
2017-12-14T06:39:59.032Z,0.70
2017-12-14T06:42:25.304Z,1.77
2017-12-14T06:44:51.598Z,1.93
2017-12-14T06:47:17.928Z,1.37
2017-12-14T06:49:44.192Z,1.33
2017-12-14T06:52:10.471Z,9.53
2017-12-14T06:54:36.748Z,2.57
2017-12-14T06:57:03.029Z,1.80
2017-12-14T06:59:29.373Z,1.83
2017-12-14T07:01:55.689Z,0.90
2017-12-14T07:04:22.725Z,0.90
2017-12-14T07:06:50.399Z,1.57
2017-12-14T07:09:17.443Z,0.70
2017-12-14T07:11:44.439Z,1.80
2017-12-14T07:14:10.719Z,0.80
2017-12-14T07:16:37.752Z,0.90
2017-12-14T07:19:04.781Z,0.60
2017-12-14T07:21:31.075Z,1.07
2017-12-14T07:23:57.483Z,0.77
2017-12-14T07:26:23.768Z,0.60
2017-12-14T07:28:50.044Z,1.07
2017-12-14T07:31:16.325Z,1.10
2017-12-14T07:33:42.664Z,1.67
2017-12-14T07:36:08.945Z,1.33
2017-12-14T07:38:35.254Z,3.93
2017-12-14T07:41:02.298Z,1.33
2017-12-14T07:43:29.357Z,0.90
2017-12-14T07:46:15.200Z,2.00
2017-12-14T07:49:00.048Z,0.90
2017-12-14T07:51:26.409Z,0.90
2017-12-14T07:53:52.690Z,0.97
2017-12-14T07:56:18.997Z,1.13
2017-12-14T07:58:45.292Z,1.70
2017-12-14T08:01:11.561Z,0.60
2017-12-14T08:03:38.574Z,2.00
2017-12-14T08:06:04.936Z,0.70
2017-12-14T08:08:31.979Z,0.90
2017-12-14T08:10:58.999Z,3.10
2017-12-14T08:13:25.297Z,0.93
2017-12-14T08:15:51.561Z,0.90
2017-12-14T08:18:17.852Z,0.50
2017-12-14T08:20:44.163Z,0.47
2017-12-14T08:23:11.164Z,0.50
2017-12-14T08:25:37.479Z,1.40
2017-12-14T08:28:03.827Z,0.97
2017-12-14T08:30:30.084Z,0.80
2017-12-14T08:32:57.094Z,0.40
2017-12-14T08:35:23.377Z,0.50
2017-12-14T08:37:50.389Z,2.10
2017-12-14T08:40:16.681Z,3.23
2017-12-14T08:42:43.000Z,0.70
2017-12-14T08:45:09.302Z,0.70
2017-12-14T08:47:36.304Z,1.10
2017-12-14T08:50:02.574Z,0.40
2017-12-14T08:52:28.824Z,1.93
2017-12-14T08:54:55.934Z,1.47
2017-12-14T08:57:22.216Z,1.17
2017-12-14T08:59:48.599Z,0.50
2017-12-14T09:02:14.952Z,4.83
2017-12-14T09:04:42.030Z,0.50
2017-12-14T09:07:08.368Z,0.70
2017-12-14T09:09:34.656Z,0.40
2017-12-14T09:12:01.707Z,0.60
2017-12-14T09:14:28.065Z,0.60
2017-12-14T09:16:54.463Z,0.50
2017-12-14T09:19:20.864Z,0.70
2017-12-14T09:21:47.985Z,0.40
2017-12-14T09:24:15.336Z,0.70
2017-12-14T09:26:41.712Z,0.63
2017-12-14T09:29:08.004Z,0.60
2017-12-14T09:31:34.343Z,0.87
2017-12-14T09:34:01.692Z,0.43
2017-12-14T09:36:29.084Z,0.60
2017-12-14T09:38:55.388Z,1.17
2017-12-14T09:41:21.776Z,0.57
2017-12-14T09:43:48.071Z,0.83
2017-12-14T09:46:14.358Z,0.70
2017-12-14T09:48:40.695Z,1.63
2017-12-14T09:51:07.003Z,0.40
2017-12-14T09:53:34.142Z,0.90
2017-12-14T09:56:00.425Z,3.23
2017-12-14T09:58:26.989Z,0.50
2017-12-14T10:00:53.246Z,0.50
2017-12-14T10:03:19.530Z,1.00
2017-12-14T10:05:45.846Z,1.13
2017-12-14T10:08:12.245Z,0.90
2017-12-14T10:10:39.341Z,1.10
2017-12-14T10:13:05.617Z,2.70
2017-12-14T10:15:32.158Z,4.30
2017-12-14T10:17:58.419Z,1.00
2017-12-14T10:20:24.737Z,1.07
2017-12-14T10:22:51.764Z,0.60
2017-12-14T10:25:18.026Z,1.33
2017-12-14T10:27:44.326Z,0.63
2017-12-14T10:30:10.674Z,1.97
2017-12-14T10:32:37.742Z,2.40
2017-12-14T10:35:04.096Z,2.40
2017-12-14T10:37:30.398Z,1.40
2017-12-14T10:39:56.720Z,1.03
2017-12-14T10:42:23.760Z,3.43
2017-12-14T10:44:50.774Z,1.97
2017-12-14T10:47:17.072Z,1.43
2017-12-14T10:49:43.391Z,1.53
2017-12-14T10:52:10.006Z,3.50
2017-12-14T10:54:37.013Z,2.97
2017-12-14T10:57:03.333Z,1.00
2017-12-14T10:59:29.811Z,1.90
2017-12-14T11:01:56.888Z,1.80
2017-12-14T11:04:23.165Z,1.03
2017-12-14T11:06:50.325Z,8.83
2017-12-14T11:09:16.611Z,1.77
2017-12-14T11:11:42.931Z,3.07
2017-12-14T11:14:09.239Z,4.70
2017-12-14T11:16:36.309Z,3.63
2017-12-14T11:19:02.618Z,2.23
2017-12-14T11:21:28.938Z,3.13
2017-12-14T11:23:55.236Z,4.80
2017-12-14T11:26:21.820Z,1.70
2017-12-14T11:28:48.102Z,1.70
2017-12-14T11:31:14.638Z,3.33
2017-12-14T11:33:40.934Z,1.30
2017-12-14T11:36:07.238Z,1.10
2017-12-14T11:38:34.296Z,1.53
2017-12-14T11:41:01.368Z,1.03
2017-12-14T11:43:27.629Z,2.30
2017-12-14T11:45:53.930Z,1.87
2017-12-14T11:48:20.284Z,2.17
2017-12-14T11:50:46.715Z,6.17
2017-12-14T11:53:13.002Z,4.97
2017-12-14T11:55:40.039Z,3.87
2017-12-14T11:58:07.151Z,7.00
2017-12-14T12:00:33.437Z,13.17
2017-12-14T12:02:59.713Z,4.00
2017-12-14T12:05:26.012Z,1.40
2017-12-14T12:07:52.305Z,3.97
2017-12-14T12:10:19.378Z,1.47
2017-12-14T12:12:46.447Z,3.97
2017-12-14T12:15:13.606Z,5.30
2017-12-14T12:17:39.906Z,2.00
2017-12-14T12:20:06.256Z,2.60
2017-12-14T12:22:32.612Z,5.53
2017-12-14T12:24:58.944Z,4.43
2017-12-14T12:27:25.308Z,6.07
2017-12-14T12:29:51.664Z,6.47
2017-12-14T12:32:18.081Z,4.17
2017-12-14T12:34:45.222Z,2.93
2017-12-14T12:37:11.620Z,5.30
2017-12-14T12:39:37.919Z,1.57
2017-12-14T12:42:04.219Z,2.50
2017-12-14T12:44:31.317Z,3.47
2017-12-14T12:46:57.695Z,2.20
2017-12-14T12:49:23.957Z,1.03
2017-12-14T12:51:51.101Z,2.20
2017-12-14T12:54:17.441Z,1.13
2017-12-14T12:56:43.847Z,0.70
2017-12-14T12:59:10.914Z,3.30
2017-12-14T13:01:37.950Z,7.93
2017-12-14T13:04:04.294Z,2.00
2017-12-14T13:06:30.618Z,1.77
2017-12-14T13:08:57.796Z,4.03
2017-12-14T13:11:24.596Z,3.70
2017-12-14T13:13:50.950Z,3.70
2017-12-14T13:16:18.164Z,2.20
2017-12-14T13:18:44.461Z,1.67
2017-12-14T13:21:10.838Z,3.20
2017-12-14T13:23:37.938Z,2.67
2017-12-14T13:26:05.088Z,2.93
2017-12-14T13:28:31.383Z,1.17
2017-12-14T13:30:58.383Z,2.27
2017-12-14T13:33:24.767Z,2.33
2017-12-14T13:35:51.913Z,4.13
2017-12-14T13:38:18.931Z,4.47
2017-12-14T13:40:45.267Z,1.83
2017-12-14T13:43:11.544Z,1.97
2017-12-14T13:45:37.866Z,5.73
2017-12-14T13:48:04.932Z,2.30
2017-12-14T13:50:31.240Z,3.57
2017-12-14T13:52:58.311Z,1.90
2017-12-14T13:55:24.592Z,2.83
2017-12-14T13:57:51.114Z,4.67
2017-12-14T14:00:17.446Z,2.40
2017-12-14T14:02:44.712Z,2.50
2017-12-14T14:05:11.645Z,2.20
2017-12-14T14:07:38.007Z,5.43
2017-12-14T14:10:05.070Z,4.03
2017-12-14T14:12:31.475Z,5.50
2017-12-14T14:14:57.851Z,3.83
2017-12-14T14:17:24.183Z,6.33
2017-12-14T14:19:50.477Z,1.00
2017-12-14T14:22:17.637Z,8.97
2017-12-14T14:24:43.937Z,6.17
2017-12-14T14:27:10.288Z,2.03
2017-12-14T14:29:37.453Z,2.77
2017-12-14T14:32:03.886Z,3.23
2017-12-14T14:34:31.060Z,3.77
2017-12-14T14:36:57.508Z,1.33
2017-12-14T14:39:24.010Z,4.00
2017-12-14T14:41:50.374Z,2.17
2017-12-14T14:44:16.656Z,6.53
2017-12-14T14:46:42.950Z,3.90
2017-12-14T14:49:09.228Z,2.87
2017-12-14T14:51:36.240Z,6.40
2017-12-14T14:54:02.539Z,2.50
2017-12-14T14:56:28.864Z,3.00
2017-12-14T14:58:55.337Z,7.80
2017-12-14T15:01:21.622Z,5.77
2017-12-14T15:03:47.941Z,3.60
2017-12-14T15:06:14.322Z,8.33
2017-12-14T15:08:40.612Z,3.87
2017-12-14T15:11:06.915Z,2.57
2017-12-14T15:13:34.135Z,10.53
2017-12-14T15:16:00.499Z,4.23
2017-12-14T15:18:27.838Z,5.83
2017-12-14T15:20:54.997Z,7.80
2017-12-14T15:23:21.329Z,5.73
2017-12-14T15:25:47.595Z,5.73
2017-12-14T15:28:14.135Z,5.00
2017-12-14T15:30:40.444Z,4.43
2017-12-14T15:33:07.581Z,4.10
2017-12-14T15:35:34.730Z,9.63
2017-12-14T15:38:01.040Z,8.43
2017-12-14T15:40:29.208Z,6.30
2017-12-14T15:42:56.513Z,7.50
2017-12-14T15:45:22.814Z,2.17
2017-12-14T15:47:49.153Z,5.57
2017-12-14T15:50:16.227Z,4.60
2017-12-14T15:52:42.521Z,6.83
2017-12-14T15:55:09.889Z,6.47
2017-12-14T15:57:36.952Z,14.77
2017-12-14T16:00:04.125Z,5.70
2017-12-14T16:02:30.565Z,9.93
2017-12-14T16:04:56.927Z,3.27
2017-12-14T16:07:23.257Z,6.70
2017-12-14T16:09:49.589Z,8.60
2017-12-14T16:12:15.903Z,13.33
2017-12-14T16:14:42.924Z,8.70
2017-12-14T16:17:09.534Z,8.50
2017-12-14T16:19:36.676Z,2.87
2017-12-14T16:22:03.144Z,3.70
2017-12-14T16:24:29.539Z,8.23
2017-12-14T16:26:55.822Z,6.90
2017-12-14T16:29:22.088Z,3.47
2017-12-14T16:31:49.156Z,6.97
2017-12-14T16:34:16.171Z,3.00
2017-12-14T16:36:42.609Z,8.00
2017-12-14T16:39:08.896Z,8.53
2017-12-14T16:41:35.246Z,10.03
2017-12-14T16:44:01.547Z,4.17
2017-12-14T16:46:28.588Z,5.97
2017-12-14T16:48:55.728Z,10.63
2017-12-14T16:51:22.767Z,6.50
2017-12-14T16:53:49.131Z,4.40
2017-12-14T16:56:15.419Z,8.87
2017-12-14T16:58:41.708Z,8.10
2017-12-14T17:01:08.001Z,7.50
2017-12-14T17:03:35.038Z,5.00
2017-12-14T17:06:01.305Z,5.80
2017-12-14T17:08:27.632Z,4.13
2017-12-14T17:10:54.006Z,5.60
2017-12-14T17:13:20.406Z,10.17
2017-12-14T17:15:46.713Z,3.03
2017-12-14T17:18:13.721Z,4.20
2017-12-14T17:20:39.991Z,9.33
2017-12-14T17:23:07.076Z,4.80
2017-12-14T17:25:33.424Z,8.33
2017-12-14T17:27:59.768Z,9.37
2017-12-14T17:30:26.134Z,4.70
2017-12-14T17:32:53.161Z,10.97
2017-12-14T17:35:19.562Z,14.00
2017-12-14T17:37:45.870Z,4.10
2017-12-14T17:40:12.213Z,10.30
2017-12-14T17:42:38.541Z,5.80
2017-12-14T17:45:04.883Z,7.93
2017-12-14T17:47:31.227Z,9.43
2017-12-14T17:49:57.560Z,2.97
2017-12-14T17:52:23.895Z,6.60
2017-12-14T17:54:50.242Z,5.90
2017-12-14T17:57:16.753Z,4.27
2017-12-14T17:59:44.079Z,5.37
2017-12-14T18:02:10.385Z,4.07
2017-12-14T18:04:37.413Z,5.83
2017-12-14T18:07:03.747Z,5.00
2017-12-14T18:09:30.863Z,4.20
2017-12-14T18:11:57.175Z,8.87
2017-12-14T18:14:23.526Z,7.53
2017-12-14T18:16:49.916Z,3.40
2017-12-14T18:19:17.172Z,7.43
2017-12-14T18:21:43.568Z,5.77
2017-12-14T18:24:09.969Z,5.80
2017-12-14T18:26:36.300Z,6.70
2017-12-14T18:29:02.746Z,6.87
2017-12-14T18:31:29.268Z,12.33
2017-12-14T18:33:55.649Z,5.53
2017-12-14T18:36:22.766Z,7.40
2017-12-14T18:38:49.485Z,7.20
2017-12-14T18:41:16.006Z,5.77
2017-12-14T18:43:42.541Z,5.73
2017-12-14T18:46:08.982Z,11.90
2017-12-14T18:48:35.517Z,9.00
2017-12-14T18:51:01.847Z,5.00
2017-12-14T18:53:28.351Z,10.13
2017-12-14T18:55:55.831Z,4.47
2017-12-14T18:58:22.248Z,5.30
2017-12-14T19:00:49.470Z,7.80
2017-12-14T19:03:16.019Z,5.50
2017-12-14T19:05:42.446Z,7.93
2017-12-14T19:08:09.602Z,7.37
2017-12-14T19:10:36.008Z,3.60
2017-12-14T19:13:02.474Z,6.77
2017-12-14T19:15:28.843Z,8.03
2017-12-14T19:17:55.243Z,13.73
2017-12-14T19:20:22.736Z,11.37
2017-12-14T19:22:49.136Z,9.70
2017-12-14T19:25:16.195Z,9.93
2017-12-14T19:27:42.507Z,7.60
2017-12-14T19:30:09.647Z,8.60
2017-12-14T19:32:36.008Z,7.53
2017-12-14T19:35:02.366Z,15.20
2017-12-14T19:37:28.705Z,11.17
2017-12-14T19:39:55.057Z,6.63
2017-12-14T19:42:21.757Z,5.30
2017-12-14T19:44:48.105Z,8.57
2017-12-14T19:47:14.455Z,12.30
2017-12-14T19:49:40.789Z,6.30
2017-12-14T19:52:07.262Z,3.67
2017-12-14T19:54:34.443Z,4.00
2017-12-14T19:57:00.877Z,5.80
2017-12-14T19:59:27.684Z,5.43
2017-12-14T20:01:54.138Z,0.90
2017-12-14T20:04:20.638Z,2.20
2017-12-14T20:06:47.748Z,0.97
2017-12-14T20:09:14.287Z,1.33
2017-12-14T20:11:41.304Z,5.13
2017-12-14T20:14:09.318Z,0.60
2017-12-14T20:16:35.682Z,1.27
2017-12-14T20:19:02.777Z,0.60
2017-12-14T20:21:29.814Z,2.03
2017-12-14T20:23:56.154Z,1.33
2017-12-14T20:26:22.559Z,2.30
2017-12-14T20:28:49.632Z,1.00
2017-12-14T20:31:16.990Z,1.50
2017-12-14T20:33:44.452Z,4.10
2017-12-14T20:36:10.805Z,0.50
2017-12-14T20:38:37.148Z,1.17
2017-12-14T20:41:03.476Z,0.70
2017-12-14T20:43:30.254Z,0.50
2017-12-14T20:45:57.797Z,0.50
2017-12-14T20:51:04.519Z,1.70
2017-12-14T20:53:31.715Z,1.50
2017-12-14T20:55:59.234Z,2.90
2017-12-14T20:58:26.100Z,1.60
2017-12-14T21:00:52.864Z,0.80
2017-12-14T21:03:19.234Z,1.93
2017-12-14T21:05:46.929Z,2.13
2017-12-14T21:08:14.365Z,2.70
2017-12-14T21:10:41.663Z,1.40
2017-12-14T21:13:08.270Z,1.70
2017-12-14T21:15:34.630Z,1.90
2017-12-14T21:18:01.062Z,1.17
2017-12-14T21:20:27.871Z,3.53
2017-12-14T21:22:55.357Z,3.33
2017-12-14T21:25:21.724Z,1.73
2017-12-14T21:27:48.189Z,3.17
2017-12-14T21:30:15.315Z,6.03
2017-12-14T21:32:41.744Z,4.40
2017-12-14T21:35:08.196Z,5.63
2017-12-14T21:37:35.375Z,1.53
2017-12-14T21:40:01.899Z,2.50
2017-12-14T21:42:29.163Z,3.23
2017-12-14T21:44:55.734Z,1.87
2017-12-14T21:47:22.079Z,1.67
2017-12-14T21:49:48.421Z,1.33
2017-12-14T21:52:14.776Z,2.50
2017-12-14T21:54:41.831Z,1.43
2017-12-14T21:57:08.861Z,1.50
2017-12-14T21:59:35.141Z,2.40
2017-12-14T22:02:01.449Z,2.83
2017-12-14T22:04:27.794Z,3.23
2017-12-14T22:06:54.111Z,3.67
2017-12-14T22:09:20.428Z,2.90
2017-12-14T22:11:47.507Z,3.93
2017-12-14T22:14:13.833Z,2.23
2017-12-14T22:16:47.211Z,4.00
2017-12-14T22:19:14.243Z,4.20
2017-12-14T22:21:41.301Z,5.30
2017-12-14T22:24:08.376Z,3.43
2017-12-14T22:26:34.776Z,4.23
2017-12-14T22:29:01.832Z,2.27
2017-12-14T22:31:28.937Z,3.97
2017-12-14T22:33:55.244Z,3.90
2017-12-14T22:36:21.579Z,4.27
2017-12-14T22:38:47.970Z,5.03
2017-12-14T22:41:14.342Z,3.57
2017-12-14T22:43:40.734Z,3.00
2017-12-14T22:46:07.812Z,2.13
2017-12-14T22:48:34.350Z,3.47
2017-12-14T22:51:00.789Z,3.00
2017-12-14T22:53:27.355Z,4.27
2017-12-14T22:55:53.811Z,4.93
2017-12-14T22:58:20.176Z,7.90
2017-12-14T23:00:46.549Z,9.63
2017-12-14T23:03:12.925Z,4.80
2017-12-14T23:05:40.073Z,3.40
2017-12-14T23:08:06.441Z,4.53
2017-12-14T23:10:32.735Z,6.13
2017-12-14T23:12:59.870Z,9.10
2017-12-14T23:15:26.343Z,4.47
2017-12-14T23:17:52.768Z,5.23
2017-12-14T23:20:19.144Z,3.27
2017-12-14T23:22:45.430Z,8.00
2017-12-14T23:25:11.744Z,6.27
2017-12-14T23:27:38.746Z,6.10
2017-12-14T23:30:05.124Z,7.13
2017-12-14T23:32:32.168Z,3.50
2017-12-14T23:34:59.211Z,8.10
2017-12-14T23:37:25.505Z,3.57
2017-12-14T23:39:51.812Z,4.90
2017-12-14T23:42:18.107Z,7.07
2017-12-14T23:44:44.395Z,5.50
2017-12-14T23:47:10.676Z,6.00
2017-12-14T23:49:37.751Z,4.13
2017-12-14T23:52:04.048Z,14.80
2017-12-14T23:54:30.331Z,3.70
2017-12-14T23:56:56.744Z,9.33
2017-12-14T23:59:23.038Z,7.00
